Time;durP1;ratioP1;P1;durP2;ratioP2;P2;SDS_P1;SDS_P2;PMS_P1;PMS_P2;Temp;Humidity;BMP_temperature;BMP_pressure;BME280_temperature;BME280_humidity;BME280_pressure;Samples;Min_cycle;Max_cycle;Signal;HPM_P1;HPM_P2
2022/02/08 00:01:21;;;;;;;7.93;0.80;;;5.10;99.90;;;;;;5108299;28;20452;-73
2022/02/08 00:03:47;;;;;;;7.95;1.20;;;5.00;99.90;;;;;;5100942;28;20084;-71
2022/02/08 00:08:57;;;;;;;9.50;1.20;;;5.10;99.90;;;;;;5087878;28;20103;-73
2022/02/08 00:11:23;;;;;;;7.88;1.38;;;5.10;99.90;;;;;;5087937;28;20028;-72
2022/02/08 00:13:49;;;;;;;2.20;0.73;;;5.10;99.90;;;;;;5093063;28;20111;-73
2022/02/08 00:16:15;;;;;;;8.43;1.70;;;5.10;99.90;;;;;;5107995;28;20035;-72
2022/02/08 00:18:40;;;;;;;17.85;0.93;;;5.10;99.90;;;;;;5107915;28;20047;-76
2022/02/08 00:21:06;;;;;;;4.85;0.40;;;5.10;99.90;;;;;;5087891;28;20016;-71
2022/02/08 00:23:31;;;;;;;4.20;0.82;;;5.10;99.90;;;;;;5087776;28;20035;-73
2022/02/08 00:25:57;;;;;;;1.50;0.57;;;5.20;99.90;;;;;;5087563;28;20083;-71
2022/02/08 00:28:23;;;;;;;2.17;0.88;;;5.20;99.90;;;;;;5087402;28;20028;-73
2022/02/08 00:30:51;;;;;;;1.17;0.70;;;5.20;99.90;;;;;;5087391;28;20049;-75
2022/02/08 00:33:17;;;;;;;6.70;1.83;;;5.20;99.90;;;;;;5086979;28;20070;-74
2022/02/08 00:35:43;;;;;;;6.30;1.63;;;5.20;99.90;;;;;;5087554;28;20104;-73
2022/02/08 00:38:09;;;;;;;10.10;1.67;;;5.20;99.90;;;;;;5087369;28;20028;-75
2022/02/08 00:40:34;;;;;;;1.05;0.45;;;5.20;99.90;;;;;;5099256;28;20118;-74
2022/02/08 00:43:02;;;;;;;10.02;1.05;;;5.20;99.90;;;;;;5107519;28;20106;-75
2022/02/08 00:45:53;;;;;;;3.05;1.00;;;5.30;99.90;;;;;;5107482;28;20063;-72
2022/02/08 00:48:28;;;;;;;6.65;0.90;;;5.30;99.90;;;;;;5089252;28;20070;-74
2022/02/08 00:50:54;;;;;;;5.88;1.35;;;5.30;99.90;;;;;;5106717;28;20103;-75
2022/02/08 00:53:20;;;;;;;3.50;1.23;;;5.30;99.90;;;;;;5105721;28;20024;-73
2022/02/08 00:55:49;;;;;;;5.70;1.33;;;5.30;99.90;;;;;;5086805;28;20086;-76
2022/02/08 00:58:15;;;;;;;5.18;1.92;;;5.30;99.90;;;;;;5068504;28;20826;-72
2022/02/08 01:00:42;;;;;;;3.22;1.27;;;5.30;99.90;;;;;;5087003;28;20080;-75
2022/02/08 01:03:08;;;;;;;13.68;2.30;;;5.30;99.90;;;;;;5086803;28;20036;-76
2022/02/08 01:05:40;;;;;;;2.15;1.27;;;5.30;99.90;;;;;;5086819;28;20048;-72
2022/02/08 01:08:06;;;;;;;13.60;1.92;;;5.40;99.90;;;;;;5087035;28;20029;-75
2022/02/08 01:10:37;;;;;;;3.70;1.35;;;5.40;99.90;;;;;;5085339;28;20039;-75
2022/02/08 01:13:05;;;;;;;5.00;1.77;;;5.40;99.90;;;;;;5068483;28;20390;-72
2022/02/08 01:15:31;;;;;;;2.70;1.55;;;5.50;99.90;;;;;;5086648;28;20024;-74
2022/02/08 01:17:58;;;;;;;19.38;1.67;;;5.40;99.90;;;;;;5086607;28;20028;-73
2022/02/08 01:20:30;;;;;;;5.60;1.80;;;5.40;99.90;;;;;;5086619;28;20033;-75
2022/02/08 01:22:55;;;;;;;8.93;2.75;;;5.40;99.90;;;;;;5086159;28;20084;-74
2022/02/08 01:25:29;;;;;;;2.00;1.17;;;5.40;99.90;;;;;;5084676;28;20024;-75
2022/02/08 01:27:58;;;;;;;10.55;2.33;;;5.50;99.90;;;;;;5086318;28;20021;-73
2022/02/08 01:30:30;;;;;;;6.65;1.27;;;5.50;99.90;;;;;;5086383;28;20389;-73
2022/02/08 01:35:57;;;;;;;4.93;2.05;;;5.40;99.90;;;;;;5066495;28;20033;-74
2022/02/08 01:38:28;;;;;;;5.78;2.50;;;5.30;99.90;;;;;;5086273;28;20028;-74
2022/02/08 01:48:50;;;;;;;14.77;3.90;;;5.20;99.90;;;;;;5086255;28;20067;-74
2022/02/08 01:51:16;;;;;;;4.30;2.38;;;5.20;99.90;;;;;;5085920;28;20473;-77
2022/02/08 01:53:43;;;;;;;7.90;4.05;;;5.20;99.90;;;;;;5085737;28;20051;-77
2022/02/08 01:56:11;;;;;;;16.42;3.58;;;5.20;99.90;;;;;;5085823;28;20020;-77
2022/02/08 01:58:37;;;;;;;16.23;2.83;;;5.20;99.90;;;;;;5085966;28;20060;-77
2022/02/08 02:01:03;;;;;;;6.32;3.33;;;5.20;99.90;;;;;;5084357;28;20044;-75
2022/02/08 02:03:29;;;;;;;11.38;2.55;;;5.20;99.90;;;;;;5083554;28;20031;-75
2022/02/08 02:05:54;;;;;;;11.77;2.55;;;5.20;99.90;;;;;;5085517;28;20085;-75
2022/02/08 02:08:20;;;;;;;6.13;2.50;;;5.20;99.90;;;;;;5085477;28;20036;-78
2022/02/08 02:10:47;;;;;;;10.23;3.20;;;5.30;99.90;;;;;;5085511;28;20052;-75
2022/02/08 02:13:35;;;;;;;9.60;3.40;;;5.20;99.90;;;;;;5085531;28;20028;-75
2022/02/08 02:16:04;;;;;;;11.05;4.03;;;5.30;99.90;;;;;;5071398;28;20028;-75
2022/02/08 02:18:29;;;;;;;9.52;3.42;;;5.30;99.90;;;;;;5058285;28;20086;-74
2022/02/08 02:20:55;;;;;;;8.02;3.33;;;5.30;99.90;;;;;;5085991;28;20491;-74
2022/02/08 02:23:20;;;;;;;9.13;3.22;;;5.30;99.90;;;;;;5073334;28;20499;-73
2022/02/08 02:25:46;;;;;;;10.05;3.60;;;5.30;99.90;;;;;;5105193;28;20028;-75
2022/02/08 02:28:12;;;;;;;9.65;3.00;;;5.30;99.90;;;;;;5082336;28;20037;-75
2022/02/08 02:30:38;;;;;;;13.10;4.25;;;5.40;99.90;;;;;;5084695;28;20024;-78
2022/02/08 02:33:06;;;;;;;15.88;4.13;;;5.40;99.90;;;;;;5048215;28;20029;-75
2022/02/08 02:35:32;;;;;;;13.68;3.53;;;5.40;99.90;;;;;;5046760;28;20025;-77
2022/02/08 02:38:01;;;;;;;19.27;4.95;;;5.40;99.90;;;;;;5065011;28;20029;-75
2022/02/08 02:40:30;;;;;;;11.93;3.65;;;5.40;99.90;;;;;;5064589;28;20048;-76
2022/02/08 02:42:56;;;;;;;13.02;3.75;;;5.60;99.90;;;;;;5064883;28;20033;-74
2022/02/08 02:45:22;;;;;;;11.38;4.72;;;5.50;99.90;;;;;;5046778;28;20026;-76
2022/02/08 02:47:51;;;;;;;31.00;6.00;;;5.50;99.90;;;;;;5068205;28;20029;-75
2022/02/08 02:50:16;;;;;;;14.35;4.43;;;5.50;99.90;;;;;;5097990;28;20059;-74
2022/02/08 02:52:43;;;;;;;9.80;4.20;;;5.50;99.90;;;;;;5084900;28;20028;-76
2022/02/08 02:55:09;;;;;;;11.85;3.47;;;5.50;99.90;;;;;;5084815;28;20080;-76
2022/02/08 02:57:35;;;;;;;8.85;4.03;;;5.50;99.90;;;;;;5060735;28;20368;-75
2022/02/08 03:00:09;;;;;;;16.90;3.90;;;5.50;99.90;;;;;;5064781;28;20032;-75
2022/02/08 03:02:45;;;;;;;16.67;5.20;;;5.50;99.90;;;;;;5063647;28;20053;-75
2022/02/08 03:05:27;;;;;;;21.85;4.45;;;5.60;99.90;;;;;;5064813;28;20029;-75
2022/02/08 03:18:52;;;;;;;14.60;5.00;;;5.60;99.90;;;;;;5084595;28;20427;-75
2022/02/08 03:21:17;;;;;;;25.13;5.95;;;5.60;99.90;;;;;;5084506;28;20088;-75
2022/02/08 03:23:43;;;;;;;22.23;6.35;;;5.60;99.90;;;;;;5067104;28;20056;-74
2022/02/08 03:26:10;;;;;;;25.23;6.65;;;5.70;99.90;;;;;;5064524;28;20032;-74
2022/02/08 03:28:36;;;;;;;21.25;7.00;;;5.60;99.90;;;;;;5064651;28;20077;-74
2022/02/08 03:31:02;;;;;;;21.52;6.68;;;5.70;99.90;;;;;;5064326;28;20132;-72
2022/02/08 03:33:28;;;;;;;20.55;7.10;;;5.70;99.90;;;;;;5064381;28;20042;-74
2022/02/08 03:35:55;;;;;;;19.67;6.07;;;5.70;99.90;;;;;;5062939;28;20033;-75
2022/02/08 03:38:36;;;;;;;25.13;7.05;;;5.70;99.90;;;;;;5063967;28;20047;-72
2022/02/08 03:41:06;;;;;;;24.33;8.43;;;5.70;99.90;;;;;;5064316;28;20021;-75
2022/02/08 03:43:33;;;;;;;15.27;6.55;;;5.80;99.90;;;;;;5054677;28;20055;-76
2022/02/08 03:46:03;;;;;;;19.58;7.13;;;5.80;99.90;;;;;;5084261;28;20021;-78
2022/02/08 03:48:31;;;;;;;17.83;6.35;;;5.70;99.90;;;;;;5084294;28;20036;-77
2022/02/08 03:51:08;;;;;;;17.17;6.57;;;5.80;99.90;;;;;;5066309;28;20016;-77
2022/02/08 03:53:36;;;;;;;15.73;6.82;;;5.80;99.90;;;;;;5065877;28;20037;-74
2022/02/08 03:56:02;;;;;;;17.80;6.22;;;5.90;99.90;;;;;;5084238;28;20021;-75
2022/02/08 03:58:29;;;;;;;14.05;6.55;;;5.80;99.90;;;;;;5084158;28;20036;-76
2022/02/08 04:03:29;;;;;;;15.55;6.55;;;5.80;99.90;;;;;;5065905;28;20059;-73
2022/02/08 04:05:56;;;;;;;21.92;7.32;;;5.90;99.90;;;;;;5067779;28;20024;-77
2022/02/08 04:08:23;;;;;;;28.42;7.20;;;5.80;99.90;;;;;;5065419;28;20070;-77
2022/02/08 04:10:49;;;;;;;17.58;6.60;;;5.90;99.90;;;;;;5083907;28;20182;-76
2022/02/08 04:13:20;;;;;;;16.75;6.57;;;5.90;99.90;;;;;;5084177;28;20473;-75
2022/02/08 04:32:21;;;;;;;18.05;6.85;;;6.00;99.90;;;;;;5067561;28;20060;-76
2022/02/08 04:35:09;;;;;;;15.32;5.72;;;6.00;99.90;;;;;;5067576;28;20025;-79
2022/02/08 04:40:41;;;;;;;28.63;6.53;;;6.20;99.90;;;;;;5084394;28;20052;-76
2022/02/08 04:45:52;;;;;;;25.73;7.57;;;6.20;99.90;;;;;;5087067;28;20044;-75
2022/02/08 04:48:45;;;;;;;13.68;6.60;;;6.20;99.90;;;;;;5087037;28;20024;-72
2022/02/08 04:51:18;;;;;;;18.75;7.72;;;6.20;99.90;;;;;;5087344;28;20084;-75
2022/02/08 04:53:52;;;;;;;12.23;5.13;;;6.30;99.90;;;;;;5086328;28;20078;-76
2022/02/08 04:56:27;;;;;;;22.90;7.22;;;6.20;99.90;;;;;;5086921;28;20024;-74
2022/02/08 04:59:13;;;;;;;25.33;6.95;;;6.30;99.90;;;;;;5086944;28;20045;-75
2022/02/08 05:45:23;;;;;;;18.85;7.28;;;6.90;99.90;;;;;;5081084;28;20055;-74
2022/02/08 05:47:51;;;;;;;23.67;7.80;;;6.90;99.90;;;;;;5085986;28;20024;-77
2022/02/08 05:55:23;;;;;;;35.40;8.48;;;7.00;99.90;;;;;;5065693;28;20083;-74
2022/02/08 05:57:51;;;;;;;25.73;8.77;;;7.10;99.90;;;;;;5065760;28;20033;-76
2022/02/08 06:00:18;;;;;;;25.08;9.18;;;7.10;99.90;;;;;;5065600;28;20036;-75
2022/02/08 06:02:44;;;;;;;36.97;8.98;;;7.10;99.90;;;;;;5065809;28;20454;-76
2022/02/08 06:05:16;;;;;;;16.80;7.60;;;7.10;99.90;;;;;;5055789;28;20024;-73
2022/02/08 06:07:42;;;;;;;26.05;8.43;;;7.20;99.90;;;;;;5073510;28;20098;-74
2022/02/08 06:10:10;;;;;;;23.08;7.63;;;7.20;99.90;;;;;;5084426;28;20521;-73
2022/02/08 06:12:51;;;;;;;36.22;9.68;;;7.20;99.90;;;;;;5076152;28;20029;-73
2022/02/08 06:15:20;;;;;;;40.75;9.20;;;7.30;99.90;;;;;;5065730;28;20035;-77
2022/02/08 06:17:46;;;;;;;26.90;7.43;;;7.30;99.90;;;;;;5060431;28;20028;-75
2022/02/08 06:20:13;;;;;;;27.85;10.18;;;7.30;99.90;;;;;;5085547;28;20033;-73
2022/02/08 06:22:44;;;;;;;24.00;9.45;;;7.30;99.90;;;;;;5085275;28;20051;-75
2022/02/08 06:25:13;;;;;;;26.83;8.25;;;7.30;99.90;;;;;;5067612;28;20025;-75
2022/02/08 06:27:41;;;;;;;26.67;8.98;;;7.40;99.90;;;;;;5085262;28;20024;-74
2022/02/08 06:30:08;;;;;;;27.02;9.30;;;7.40;99.90;;;;;;5083872;28;20029;-73
2022/02/08 06:32:35;;;;;;;26.30;7.30;;;7.40;99.90;;;;;;5084909;28;20031;-75
2022/02/08 06:35:06;;;;;;;24.75;10.35;;;7.50;99.90;;;;;;5084683;28;20027;-72
2022/02/08 06:37:34;;;;;;;31.08;7.30;;;7.50;99.90;;;;;;5083840;28;20025;-73
2022/02/08 06:40:00;;;;;;;23.00;8.57;;;7.50;99.90;;;;;;5084718;28;20401;-74
2022/02/08 06:42:26;;;;;;;33.20;8.70;;;7.60;99.90;;;;;;5084734;28;20027;-72
2022/02/08 06:44:51;;;;;;;27.98;8.13;;;7.60;99.90;;;;;;5083564;28;20031;-73
2022/02/08 06:47:18;;;;;;;32.50;7.57;;;7.60;99.90;;;;;;5083692;28;20031;-73
2022/02/08 06:49:43;;;;;;;17.65;7.55;;;7.60;99.90;;;;;;5092325;28;20024;-75
2022/02/08 06:52:10;;;;;;;19.90;8.95;;;7.70;99.90;;;;;;5065009;28;20028;-74
2022/02/08 06:54:35;;;;;;;33.63;8.18;;;7.70;99.90;;;;;;5049150;28;20053;-74
2022/02/08 06:57:01;;;;;;;27.23;9.40;;;7.80;99.90;;;;;;5058947;28;20599;-74
2022/02/08 06:59:30;;;;;;;16.77;7.28;;;7.80;99.90;;;;;;5072398;28;20040;-73
2022/02/08 07:01:55;;;;;;;28.63;7.32;;;7.80;99.90;;;;;;5063466;28;20094;-74
2022/02/08 07:04:21;;;;;;;12.32;6.20;;;7.80;99.90;;;;;;5079934;28;20029;-74
2022/02/08 07:06:47;;;;;;;16.02;7.28;;;7.70;99.90;;;;;;5069009;28;20055;-73
2022/02/08 07:09:13;;;;;;;24.65;8.27;;;7.90;99.90;;;;;;5071186;28;20040;-76
2022/02/08 07:11:44;;;;;;;18.05;7.35;;;7.90;99.90;;;;;;5065042;28;20036;-77
2022/02/08 07:14:14;;;;;;;32.60;7.47;;;8.00;99.90;;;;;;5075822;28;20047;-75
2022/02/08 07:16:45;;;;;;;23.58;7.25;;;8.00;99.90;;;;;;5081352;28;20028;-73
2022/02/08 07:19:11;;;;;;;19.35;7.03;;;8.00;99.90;;;;;;5077540;28;20040;-72
2022/02/08 07:21:38;;;;;;;13.02;6.82;;;8.00;99.90;;;;;;5078598;28;20040;-75
2022/02/08 07:24:04;;;;;;;11.18;5.38;;;8.00;99.90;;;;;;5064672;28;20017;-72
2022/02/08 07:26:30;;;;;;;22.00;6.68;;;8.10;99.90;;;;;;5068992;28;20195;-72
2022/02/08 07:28:55;;;;;;;18.02;5.60;;;8.20;99.90;;;;;;5063822;28;20025;-73
2022/02/08 07:31:24;;;;;;;17.85;5.82;;;8.20;99.90;;;;;;5062219;28;20022;-75
2022/02/08 07:34:10;;;;;;;18.10;6.43;;;8.20;99.90;;;;;;5062606;28;20040;-73
2022/02/08 07:36:45;;;;;;;20.23;6.22;;;8.20;99.90;;;;;;5062527;28;20370;-73
2022/02/08 07:39:22;;;;;;;13.90;6.28;;;8.20;99.90;;;;;;5059831;28;20052;-75
2022/02/08 07:41:47;;;;;;;28.08;7.65;;;8.20;99.90;;;;;;5062770;28;20025;-74
2022/02/08 07:44:13;;;;;;;18.65;6.15;;;8.30;99.90;;;;;;5062995;28;20523;-71
2022/02/08 07:46:39;;;;;;;21.33;5.47;;;8.30;99.90;;;;;;5062137;28;20037;-73
2022/02/08 07:49:06;;;;;;;13.25;5.72;;;8.30;99.90;;;;;;5070273;28;20075;-74
2022/02/08 07:51:34;;;;;;;7.65;4.07;;;8.40;99.90;;;;;;5062394;28;20089;-72
2022/02/08 07:54:00;;;;;;;20.15;5.57;;;8.30;99.90;;;;;;5062109;28;20052;-73
2022/02/08 07:56:26;;;;;;;15.52;4.97;;;8.30;99.90;;;;;;5063305;28;20029;-74
2022/02/08 07:58:52;;;;;;;16.83;6.28;;;8.40;99.90;;;;;;5069064;28;20116;-72
2022/02/08 08:01:18;;;;;;;11.25;5.63;;;8.40;99.90;;;;;;5073506;28;20497;-72
2022/02/08 08:03:45;;;;;;;16.35;4.63;;;8.50;99.90;;;;;;5049164;28;20025;-72
2022/02/08 08:06:13;;;;;;;14.20;6.15;;;8.50;99.90;;;;;;5047527;28;20052;-73
2022/02/08 08:08:41;;;;;;;15.73;4.93;;;8.50;99.90;;;;;;5062528;28;20033;-73
2022/02/08 08:11:22;;;;;;;11.82;3.83;;;8.50;99.90;;;;;;5064955;28;20044;-71
2022/02/08 08:14:01;;;;;;;8.70;3.47;;;8.50;99.90;;;;;;5073055;28;20028;-73
2022/02/08 08:16:43;;;;;;;9.82;4.50;;;8.50;99.90;;;;;;5067185;28;20086;-75
2022/02/08 08:21:37;;;;;;;13.85;4.72;;;8.60;99.90;;;;;;5072700;28;20032;-73
2022/02/08 08:24:04;;;;;;;8.63;4.30;;;8.60;99.90;;;;;;5082893;28;20137;-75
2022/02/08 08:26:30;;;;;;;10.43;3.72;;;8.60;99.90;;;;;;5075058;28;20059;-72
2022/02/08 08:28:56;;;;;;;7.22;3.50;;;8.60;99.90;;;;;;5058131;28;20048;-73
2022/02/08 08:31:23;;;;;;;13.02;5.10;;;8.70;99.90;;;;;;5057646;28;20040;-73
2022/02/08 08:33:49;;;;;;;20.23;4.80;;;8.70;99.90;;;;;;5051796;28;20027;-75
2022/02/08 08:36:18;;;;;;;11.80;3.60;;;8.70;99.90;;;;;;5071695;28;20062;-72
2022/02/08 08:38:47;;;;;;;10.60;5.00;;;8.70;99.90;;;;;;5078480;28;20092;-74
2022/02/08 08:44:00;;;;;;;13.35;4.47;;;8.80;99.90;;;;;;5064412;28;20021;-72
2022/02/08 08:49:28;;;;;;;8.88;4.22;;;8.80;99.90;;;;;;5057785;28;20040;-72
2022/02/08 08:51:56;;;;;;;13.40;3.65;;;8.80;99.90;;;;;;5062776;28;20112;-73
2022/02/08 08:54:22;;;;;;;15.45;3.90;;;8.80;99.90;;;;;;5074450;28;20044;-72
2022/02/08 08:56:49;;;;;;;10.00;4.40;;;8.80;99.90;;;;;;5086671;28;20028;-73
2022/02/08 08:59:16;;;;;;;14.63;4.15;;;8.80;99.90;;;;;;5067177;28;20518;-70
2022/02/08 09:01:43;;;;;;;13.25;3.42;;;8.80;99.90;;;;;;5069116;28;20020;-73
2022/02/08 09:04:10;;;;;;;9.80;3.13;;;8.90;99.90;;;;;;5085355;28;20024;-72
2022/02/08 09:06:37;;;;;;;10.48;4.05;;;8.80;99.90;;;;;;5081624;28;20028;-71
2022/02/08 09:09:09;;;;;;;15.60;3.38;;;8.80;99.90;;;;;;5082042;28;20051;-74
2022/02/08 09:14:15;;;;;;;19.80;3.97;;;8.80;99.90;;;;;;5081680;28;20050;-75
2022/02/08 09:22:32;;;;;;;8.50;3.17;;;8.80;99.90;;;;;;5061151;28;20163;-73
2022/02/08 09:30:16;;;;;;;6.45;2.85;;;8.70;99.90;;;;;;5085334;28;20036;-73
2022/02/08 09:35:15;;;;;;;11.90;3.67;;;8.70;99.90;;;;;;5072839;28;20039;-72
2022/02/08 09:37:47;;;;;;;6.85;4.07;;;8.80;99.90;;;;;;5075748;28;20029;-71
2022/02/08 09:40:19;;;;;;;22.55;2.95;;;8.80;99.90;;;;;;5070528;28;20458;-73
2022/02/08 09:42:46;;;;;;;5.97;2.17;;;8.80;99.90;;;;;;5077333;28;20054;-73
2022/02/08 09:45:18;;;;;;;4.78;2.25;;;8.80;99.90;;;;;;5085950;28;20505;-73
2022/02/08 09:47:57;;;;;;;5.95;1.67;;;8.80;99.90;;;;;;5073523;28;20020;-72
2022/02/08 09:50:27;;;;;;;7.10;2.58;;;8.90;99.90;;;;;;5070571;28;20021;-72
2022/02/08 09:52:57;;;;;;;5.07;2.17;;;8.90;99.90;;;;;;5065561;28;20097;-72
2022/02/08 09:55:26;;;;;;;9.05;1.63;;;8.90;99.90;;;;;;5081186;28;20073;-72
2022/02/08 09:57:52;;;;;;;5.88;1.55;;;8.80;99.90;;;;;;5065195;28;20473;-71
2022/02/08 10:00:20;;;;;;;9.43;2.22;;;8.80;99.90;;;;;;5067371;28;20037;-74
2022/02/08 10:02:46;;;;;;;6.18;1.77;;;8.80;99.90;;;;;;5084086;28;20032;-73
2022/02/08 10:05:13;;;;;;;4.93;1.75;;;8.70;99.90;;;;;;5048380;28;20036;-76
2022/02/08 10:07:40;;;;;;;19.70;3.20;;;8.70;99.90;;;;;;5065753;28;20028;-73
2022/02/08 10:10:08;;;;;;;10.88;1.80;;;8.70;99.90;;;;;;5077362;28;20093;-75
2022/02/08 10:24:07;;;;;;;6.93;2.03;;;8.60;99.90;;;;;;5075080;28;20055;-73
2022/02/08 10:29:35;;;;;;;9.48;2.25;;;8.60;99.90;;;;;;5085648;28;20103;-76
2022/02/08 10:37:43;;;;;;;13.70;2.90;;;8.60;99.90;;;;;;5065361;28;20035;-73
2022/02/08 10:40:15;;;;;;;5.10;1.67;;;8.60;99.90;;;;;;5047303;28;20649;-73
2022/02/08 10:42:50;;;;;;;4.50;1.92;;;8.70;99.90;;;;;;5064932;28;20025;-74
2022/02/08 10:45:22;;;;;;;5.00;1.65;;;8.70;99.90;;;;;;5052313;28;20039;-72
2022/02/08 10:47:59;;;;;;;4.65;1.73;;;8.70;99.90;;;;;;5085582;28;20028;-74
2022/02/08 10:50:33;;;;;;;4.68;1.70;;;8.70;99.90;;;;;;5073165;28;20028;-74
2022/02/08 10:53:00;;;;;;;5.00;2.03;;;8.70;99.90;;;;;;5078866;28;20024;-75
2022/02/08 10:55:32;;;;;;;13.90;2.25;;;8.70;99.90;;;;;;5084419;28;20491;-75
2022/02/08 11:00:47;;;;;;;12.27;1.67;;;8.70;99.90;;;;;;5084795;28;20049;-72
2022/02/08 11:03:23;;;;;;;8.07;2.17;;;8.70;99.90;;;;;;5065445;28;20025;-74
2022/02/08 11:06:18;;;;;;;4.60;1.95;;;8.80;99.90;;;;;;5063399;28;20029;-74
2022/02/08 11:19:53;;;;;;;3.92;1.33;;;8.80;99.90;;;;;;5033334;28;20389;-75
2022/02/08 11:22:41;;;;;;;21.15;2.55;;;8.80;99.90;;;;;;5078270;28;20047;-73
2022/02/08 11:25:23;;;;;;;4.30;1.70;;;8.80;99.90;;;;;;5064345;28;20017;-74
2022/02/08 11:27:57;;;;;;;14.05;2.38;;;8.90;99.90;;;;;;5064223;28;20024;-75
2022/02/08 11:30:50;;;;;;;9.85;2.47;;;8.90;99.90;;;;;;5066070;28;20036;-75
2022/02/08 11:33:39;;;;;;;3.15;1.63;;;8.90;99.90;;;;;;5081089;28;20154;-74
2022/02/08 11:47:22;;;;;;;12.60;2.78;;;9.00;99.90;;;;;;5068066;28;20036;-74
2022/02/08 11:50:05;;;;;;;11.52;2.55;;;9.10;99.90;;;;;;5067992;28;20032;-76
2022/02/08 11:52:52;;;;;;;13.63;1.98;;;9.10;99.90;;;;;;5067517;28;20045;-74
2022/02/08 11:55:44;;;;;;;6.38;1.88;;;9.10;99.90;;;;;;5046041;28;20045;-73
2022/02/08 12:00:43;;;;;;;3.28;1.70;;;9.10;99.90;;;;;;5047246;28;20065;-74
2022/02/08 12:06:10;;;;;;;16.10;2.60;;;9.00;99.90;;;;;;5046804;28;20044;-76
2022/02/08 12:08:44;;;;;;;16.60;2.78;;;9.00;99.90;;;;;;5047071;28;20028;-75
2022/02/08 12:11:34;;;;;;;14.15;3.35;;;9.00;99.90;;;;;;5047954;28;20048;-75
2022/02/08 12:49:51;;;;;;;17.80;2.65;;;9.00;99.90;;;;;;5058800;28;20036;-77
2022/02/08 13:00:14;;;;;;;5.28;2.38;;;9.00;99.90;;;;;;5086368;28;20100;-74
2022/02/08 13:06:27;;;;;;;5.43;2.42;;;9.00;99.90;;;;;;5070133;28;20043;-74
2022/02/08 14:32:05;;;;;;;15.23;4.10;;;9.10;99.90;;;;;;5077777;28;20032;-75
2022/02/08 14:37:14;;;;;;;14.32;3.65;;;9.10;99.90;;;;;;5100872;28;20028;-72
2022/02/08 15:09:35;;;;;;;7.20;2.58;;;9.20;99.90;;;;;;5086550;28;20028;-75
2022/02/08 15:12:19;;;;;;;6.25;2.47;;;9.20;99.90;;;;;;5083460;28;20049;-74
2022/02/08 15:14:52;;;;;;;4.28;2.30;;;9.10;99.90;;;;;;5065857;28;20381;-73
2022/02/08 15:17:18;;;;;;;2.58;1.48;;;9.10;99.90;;;;;;5084296;28;20489;-74
2022/02/08 15:19:48;;;;;;;4.53;2.38;;;9.10;99.90;;;;;;5068231;28;20037;-75
2022/02/08 15:22:15;;;;;;;11.30;2.47;;;9.10;99.90;;;;;;5064778;28;20036;-73
2022/02/08 15:24:42;;;;;;;10.32;3.58;;;9.10;99.90;;;;;;5065022;28;20027;-73
2022/02/08 15:27:11;;;;;;;3.35;1.90;;;9.10;99.90;;;;;;5046695;28;20024;-74
2022/02/08 15:29:36;;;;;;;9.27;2.42;;;9.10;99.90;;;;;;5083163;28;20028;-78
2022/02/08 15:32:03;;;;;;;13.77;2.83;;;9.00;99.90;;;;;;5066643;28;20047;-76
2022/02/08 15:34:30;;;;;;;11.63;3.22;;;9.10;99.90;;;;;;5067401;28;20941;-73
2022/02/08 15:36:59;;;;;;;8.30;3.30;;;9.10;99.90;;;;;;5083221;28;20060;-74
2022/02/08 15:39:24;;;;;;;3.97;1.92;;;9.10;99.90;;;;;;5051416;28;20052;-75
2022/02/08 15:41:50;;;;;;;7.93;2.80;;;9.10;99.90;;;;;;5049617;28;20032;-75
2022/02/08 15:44:23;;;;;;;13.98;2.67;;;9.10;99.90;;;;;;5084358;28;20025;-73
2022/02/08 15:46:51;;;;;;;7.90;3.25;;;9.10;99.90;;;;;;5089796;28;20080;-75
2022/02/08 15:49:18;;;;;;;9.45;3.75;;;9.10;99.90;;;;;;5077893;28;20111;-76
2022/02/08 15:51:46;;;;;;;7.40;2.70;;;9.10;99.90;;;;;;5065652;28;20036;-73
2022/02/08 15:54:32;;;;;;;8.45;3.78;;;9.10;99.90;;;;;;5071107;28;20055;-73
2022/02/08 16:07:40;;;;;;;6.60;2.55;;;9.10;99.90;;;;;;5069891;28;20040;-78
2022/02/08 16:10:14;;;;;;;6.13;3.63;;;9.10;99.90;;;;;;5062067;28;20043;-74
2022/02/08 16:12:51;;;;;;;5.57;2.38;;;9.00;99.90;;;;;;5065065;28;20054;-75
2022/02/08 16:25:40;;;;;;;6.75;2.58;;;9.00;99.90;;;;;;5105654;28;20025;-74
2022/02/08 16:33:45;;;;;;;6.35;2.72;;;9.00;99.90;;;;;;5097955;28;20040;-71
2022/02/08 16:50:26;;;;;;;9.00;3.95;;;9.10;99.90;;;;;;5076580;28;20001;-73
2022/02/08 16:53:02;;;;;;;11.13;3.53;;;9.00;99.90;;;;;;5065425;28;20108;-74
2022/02/08 16:55:45;;;;;;;8.23;3.55;;;9.00;99.90;;;;;;5064912;28;20048;-72
2022/02/08 17:00:41;;;;;;;8.30;3.40;;;9.10;99.90;;;;;;5081955;28;20075;-75
2022/02/08 17:03:08;;;;;;;9.70;3.08;;;9.00;99.90;;;;;;5074917;28;20025;-73
2022/02/08 17:05:33;;;;;;;6.95;4.20;;;9.00;99.90;;;;;;5047286;28;20033;-74
2022/02/08 17:08:00;;;;;;;14.52;4.43;;;9.00;99.90;;;;;;5065096;28;20140;-74
2022/02/08 17:10:38;;;;;;;11.75;3.97;;;9.00;99.90;;;;;;5065703;28;20035;-73
2022/02/08 17:15:49;;;;;;;7.03;3.53;;;9.00;99.90;;;;;;5065685;28;20090;-75
2022/02/08 17:47:50;;;;;;;13.27;4.70;;;9.00;99.90;;;;;;5085110;28;20051;-72
2022/02/08 17:50:19;;;;;;;13.98;6.10;;;9.00;99.90;;;;;;5084358;28;20024;-73
2022/02/08 17:52:47;;;;;;;13.75;5.03;;;9.00;99.90;;;;;;5085232;28;20076;-71
2022/02/08 17:55:15;;;;;;;14.43;4.75;;;9.00;99.90;;;;;;5084818;28;20044;-77
2022/02/08 17:57:43;;;;;;;9.00;4.25;;;9.00;99.90;;;;;;5056576;28;20037;-76
2022/02/08 18:00:13;;;;;;;18.35;5.63;;;9.00;99.90;;;;;;5064763;28;20040;-76
2022/02/08 18:02:42;;;;;;;16.73;4.75;;;9.00;99.90;;;;;;5046016;28;20093;-76
2022/02/08 18:05:15;;;;;;;11.18;5.00;;;8.90;99.90;;;;;;5046979;28;20468;-75
2022/02/08 18:07:43;;;;;;;11.93;5.55;;;8.90;99.90;;;;;;5064689;28;20041;-76
2022/02/08 18:10:14;;;;;;;13.23;4.82;;;8.90;99.90;;;;;;5080857;28;20028;-77
2022/02/08 18:12:43;;;;;;;11.10;5.22;;;9.00;99.90;;;;;;5066914;28;20046;-77
2022/02/08 18:15:12;;;;;;;9.90;5.10;;;9.00;99.90;;;;;;5084786;28;20028;-76
2022/02/08 18:17:44;;;;;;;20.38;6.60;;;8.90;99.90;;;;;;5073490;28;20033;-74
2022/02/08 19:16:56;;;;;;;11.38;5.63;;;8.90;99.90;;;;;;5081294;28;20052;-75
2022/02/08 19:19:47;;;;;;;33.50;7.00;;;8.90;99.90;;;;;;5080735;28;20056;-76
2022/02/08 19:22:16;;;;;;;27.08;5.10;;;8.90;99.90;;;;;;5077073;28;20444;-76
2022/02/08 19:24:43;;;;;;;11.45;5.15;;;8.90;99.90;;;;;;5065018;28;20021;-74
2022/02/08 19:27:10;;;;;;;12.38;5.53;;;8.90;99.90;;;;;;5062929;28;20021;-75
2022/02/08 19:29:36;;;;;;;24.33;5.65;;;8.90;99.90;;;;;;5062450;28;20208;-76
2022/02/08 19:32:05;;;;;;;16.88;4.43;;;8.90;99.90;;;;;;5062194;28;20044;-74
2022/02/08 19:34:31;;;;;;;17.60;4.82;;;8.80;99.90;;;;;;5063406;28;20114;-77
2022/02/08 19:37:05;;;;;;;12.10;3.88;;;8.80;99.90;;;;;;5063053;28;20025;-76
2022/02/08 19:39:35;;;;;;;16.45;5.70;;;8.80;99.90;;;;;;5063284;28;20100;-78
2022/02/08 19:42:01;;;;;;;14.85;4.93;;;8.80;99.90;;;;;;5062828;28;20029;-77
2022/02/08 19:44:27;;;;;;;18.52;4.72;;;8.80;99.90;;;;;;5062644;28;20021;-74
2022/02/08 19:46:56;;;;;;;16.45;6.22;;;8.80;99.90;;;;;;5063339;28;20029;-76
2022/02/08 19:49:22;;;;;;;17.98;5.28;;;8.80;99.90;;;;;;5063242;28;20389;-75
2022/02/08 19:51:48;;;;;;;21.73;5.50;;;8.80;99.90;;;;;;5044815;28;20025;-78
2022/02/08 19:54:19;;;;;;;11.40;4.22;;;8.80;99.90;;;;;;5078142;28;20071;-75
2022/02/08 19:56:52;;;;;;;15.05;4.43;;;8.80;99.90;;;;;;5081210;28;20025;-75
2022/02/08 19:59:30;;;;;;;12.00;5.13;;;8.80;99.90;;;;;;5069541;28;20039;-78
2022/02/08 20:01:56;;;;;;;12.80;4.82;;;8.80;99.90;;;;;;5079994;28;20413;-78
2022/02/08 20:04:23;;;;;;;14.73;5.25;;;8.80;99.90;;;;;;5087145;28;20107;-78
2022/02/08 20:06:49;;;;;;;17.25;5.28;;;8.80;99.90;;;;;;5063169;28;20049;-76
2022/02/08 20:09:16;;;;;;;23.67;4.97;;;8.80;99.90;;;;;;5061148;28;20128;-77
2022/02/08 20:11:43;;;;;;;8.75;4.43;;;8.80;99.90;;;;;;5085430;28;20104;-74
2022/02/08 20:14:09;;;;;;;6.95;3.83;;;8.80;99.90;;;;;;5068719;28;20017;-75
2022/02/08 20:16:36;;;;;;;20.60;6.07;;;8.80;99.90;;;;;;5048783;28;20029;-76
2022/02/08 20:19:05;;;;;;;14.60;5.22;;;8.80;99.90;;;;;;5052525;28;20036;-77
2022/02/08 20:21:32;;;;;;;12.38;6.22;;;8.80;99.90;;;;;;5066706;28;20528;-79
2022/02/08 20:24:01;;;;;;;17.73;7.03;;;8.90;99.90;;;;;;5066864;28;20096;-76
2022/02/08 20:26:48;;;;;;;16.67;6.43;;;8.80;99.90;;;;;;5069078;28;20035;-78
2022/02/08 20:29:22;;;;;;;16.10;6.18;;;8.80;99.90;;;;;;5077837;28;20386;-78
2022/02/08 20:31:50;;;;;;;18.35;6.72;;;8.80;99.90;;;;;;5074358;28;20040;-77
2022/02/08 20:34:21;;;;;;;15.73;5.18;;;8.80;99.90;;;;;;5056640;28;20044;-77
2022/02/08 20:36:49;;;;;;;10.93;5.10;;;8.80;99.90;;;;;;5076230;28;20025;-73
2022/02/08 20:39:17;;;;;;;11.20;4.47;;;8.80;99.90;;;;;;5075046;28;20033;-75
2022/02/08 20:41:43;;;;;;;10.10;5.28;;;8.80;99.90;;;;;;5076037;28;20025;-79
2022/02/08 20:44:14;;;;;;;9.23;5.13;;;8.80;99.90;;;;;;5076499;28;20032;-77
2022/02/08 20:46:48;;;;;;;12.50;4.72;;;8.80;99.90;;;;;;5075381;28;20016;-77
2022/02/08 20:49:14;;;;;;;11.00;4.03;;;8.80;99.90;;;;;;5074424;28;20092;-77
2022/02/08 20:51:43;;;;;;;13.00;4.88;;;8.80;99.90;;;;;;5075609;28;20025;-78